Time;durP1;ratioP1;P1;durP2;ratioP2;P2;SDS_P1;SDS_P2;PMS_P1;PMS_P2;Temp;Humidity;BMP_temperature;BMP_pressure;BME280_temperature;BME280_humidity;BME280_pressure;Samples;Min_cycle;Max_cycle;Signal;HPM_P1;HPM_P2
2022/03/09 00:01:50;;;;;;;;;;;3.50;86.80;;;1.76;53.66;101815.28;2568666;30;139075;-41
2022/03/09 00:04:17;;;;;;;;;;;3.50;87.00;;;1.92;53.59;101809.44;2569475;30;137229;-41
2022/03/09 00:06:45;;;;;;;;;;;3.50;87.00;;;1.91;53.44;101823.88;2568922;30;137393;-42
2022/03/09 00:09:14;;;;;;;;;;;3.50;86.80;;;1.85;54.19;101831.47;2567888;30;137161;-42
2022/03/09 00:11:42;;;;;;;;;;;3.50;87.80;;;1.75;52.87;101822.50;2567216;30;137674;-41
2022/03/09 00:14:09;;;;;;;;;;;3.40;86.20;;;1.79;53.45;101831.16;2569614;30;137887;-42
2022/03/09 00:16:37;;;;;;;;;;;3.50;87.20;;;1.88;52.92;101837.63;2570890;30;139052;-42
2022/03/09 00:19:08;;;;;;;;;;;3.50;86.40;;;1.83;52.95;101838.81;2566839;30;137745;-43
2022/03/09 00:21:36;;;;;;;;;;;3.50;86.40;;;1.80;53.07;101839.09;2567297;30;138360;-41
2022/03/09 00:24:04;;;;;;;;;;;3.50;86.60;;;1.80;53.03;101847.16;2568886;30;137931;-41
2022/03/09 00:26:32;;;;;;;;;;;3.50;86.40;;;1.91;53.10;101843.56;2569975;30;138393;-41
2022/03/09 00:28:59;;;;;;;;;;;3.50;86.60;;;1.83;53.05;101852.28;2568739;30;137958;-42
2022/03/09 00:31:27;;;;;;;;;;;3.50;86.60;;;1.78;53.67;101856.38;2567781;30;138987;-43
2022/03/09 00:33:54;;;;;;;;;;;3.40;86.90;;;1.74;52.97;101858.47;2570032;30;138080;-43
2022/03/09 00:36:23;;;;;;;;;;;3.40;86.40;;;1.68;53.40;101856.28;2569946;30;139781;-44
2022/03/09 00:38:51;;;;;;;;;;;3.40;86.70;;;1.63;53.72;101859.34;2569956;30;137925;-44
2022/03/09 00:41:19;;;;;;;;;;;3.30;87.10;;;1.62;53.16;101852.25;2569089;30;138489;-43
2022/03/09 00:43:46;;;;;;;;;;;3.30;86.50;;;1.60;52.72;101856.09;2571058;30;138525;-41
2022/03/09 00:46:14;;;;;;;;;;;3.30;86.20;;;1.64;53.72;101854.84;2569344;30;138553;-41
2022/03/09 00:48:41;;;;;;;;;;;3.30;87.40;;;1.60;53.84;101853.38;2569259;30;137891;-42
2022/03/09 00:51:09;;;;;;;;;;;3.30;87.30;;;1.66;53.49;101860.94;2569950;30;138229;-42
2022/03/09 00:53:37;;;;;;;;;;;3.30;87.20;;;1.76;53.59;101863.72;2568187;30;137552;-41
2022/03/09 00:56:05;;;;;;;;;;;3.30;87.70;;;1.71;53.09;101856.88;2569302;30;139138;-42
2022/03/09 00:58:34;;;;;;;;;;;3.30;86.70;;;1.65;53.67;101857.38;2569377;30;136973;-42
2022/03/09 01:01:01;;;;;;;;;;;3.30;87.10;;;1.66;52.67;101847.50;2569575;30;138243;-42
2022/03/09 01:03:32;;;;;;;;;;;3.30;86.10;;;1.53;53.28;101836.91;2569833;30;137584;-42
2022/03/09 01:05:59;;;;;;;;;;;3.20;86.90;;;1.52;54.17;101846.78;2570125;30;138538;-41
2022/03/09 01:08:27;;;;;;;;;;;3.20;87.80;;;1.53;53.91;101843.13;2567041;30;138227;-41
2022/03/09 01:10:55;;;;;;;;;;;3.20;87.60;;;1.48;53.61;101841.81;2572779;30;138186;-42
2022/03/09 01:13:22;;;;;;;;;;;3.20;87.40;;;1.43;54.52;101834.13;2582045;30;137775;-40
2022/03/09 01:15:50;;;;;;;;;;;3.20;88.30;;;1.63;53.37;101845.06;2569148;30;137361;-40
2022/03/09 01:18:18;;;;;;;;;;;3.20;87.30;;;1.66;52.95;101842.13;2566815;30;137479;-40
2022/03/09 01:20:45;;;;;;;;;;;3.30;87.00;;;1.61;52.68;101850.56;2569014;30;138099;-40
2022/03/09 01:23:13;;;;;;;;;;;3.20;86.50;;;1.57;52.99;101846.41;2569428;30;136975;-40
2022/03/09 01:25:40;;;;;;;;;;;3.20;86.50;;;1.56;53.52;101848.25;2568900;30;138968;-40
2022/03/09 01:28:08;;;;;;;;;;;3.20;87.10;;;1.56;52.65;101840.16;2568093;30;137019;-40
2022/03/09 01:30:35;;;;;;;;;;;3.20;86.40;;;1.48;54.03;101845.34;2567017;30;138955;-40
2022/03/09 01:33:03;;;;;;;;;;;3.10;87.50;;;1.48;53.12;101842.66;2568063;30;136768;-40
2022/03/09 01:35:31;;;;;;;;;;;3.10;86.70;;;1.48;53.68;101839.13;2567064;30;138967;-40
2022/03/09 01:37:58;;;;;;;;;;;3.10;87.60;;;1.52;53.65;101841.41;2568120;30;138200;-40
2022/03/09 01:40:26;;;;;;;;;;;3.10;87.30;;;1.47;52.83;101838.25;2567181;30;138359;-40
2022/03/09 01:42:53;;;;;;;;;;;3.10;86.80;;;1.49;53.33;101832.75;2569361;30;137053;-40
2022/03/09 01:45:21;;;;;;;;;;;3.10;87.10;;;1.54;52.57;101827.84;2567722;30;138104;-40
2022/03/09 01:47:49;;;;;;;;;;;3.10;86.10;;;1.50;53.48;101824.56;2567461;30;137127;-40
2022/03/09 01:50:16;;;;;;;;;;;3.10;87.30;;;1.58;52.67;101815.84;2570149;30;138202;-40
2022/03/09 01:52:44;;;;;;;;;;;3.20;86.50;;;1.50;53.59;101829.09;2567317;30;137084;-40
2022/03/09 01:55:14;;;;;;;;;;;3.10;87.20;;;1.65;53.61;101818.88;2568761;30;137190;-40
2022/03/09 01:57:42;;;;;;;;;;;3.20;87.40;;;1.55;52.79;101819.63;2568799;30;137104;-40
2022/03/09 02:00:10;;;;;;;;;;;3.20;86.60;;;1.50;53.50;101829.94;2568983;30;138425;-40
2022/03/09 02:02:39;;;;;;;;;;;3.10;86.60;;;1.40;53.02;101824.47;2568408;30;138590;-40
2022/03/09 02:05:07;;;;;;;;;;;3.10;86.70;;;1.37;53.69;101823.88;2568877;30;138367;-40
2022/03/09 02:10:23;;;;;;;;;;;3.00;87.30;;;1.22;53.94;101818.78;2568455;30;139012;-41
2022/03/09 02:12:50;;;;;;;;;;;2.90;87.50;;;1.31;54.87;101819.00;2567859;30;137088;-40
2022/03/09 02:15:18;;;;;;;;;;;2.90;89.00;;;1.32;54.40;101824.25;2568129;30;138286;-40
2022/03/09 02:17:45;;;;;;;;;;;2.90;88.60;;;1.22;54.00;101834.91;2568713;30;136920;-40
2022/03/09 02:20:13;;;;;;;;;;;2.90;88.00;;;1.27;54.05;101838.06;2568924;30;138357;-40
2022/03/09 02:22:42;;;;;;;;;;;2.90;88.40;;;1.24;54.72;101829.41;2565991;30;138080;-40
2022/03/09 02:25:12;;;;;;;;;;;2.90;88.70;;;1.21;54.45;101829.69;2567368;30;139182;-40
2022/03/09 02:27:40;;;;;;;;;;;2.90;88.30;;;1.15;54.76;101831.03;2567335;30;137257;-40
2022/03/09 02:30:09;;;;;;;;;;;2.80;88.90;;;1.12;55.25;101833.97;2567931;30;138153;-40
2022/03/09 02:32:42;;;;;;;;;;;2.80;89.30;;;1.10;54.58;101831.38;2566951;30;136782;-40
2022/03/09 02:35:12;;;;;;;;;;;2.80;89.20;;;1.23;54.46;101833.09;2568167;30;139004;-40
2022/03/09 02:37:40;;;;;;;;;;;2.80;88.60;;;1.24;53.57;101837.47;2569390;30;137054;-40
2022/03/09 02:40:11;;;;;;;;;;;2.90;87.70;;;1.22;55.13;101834.06;2565468;30;138644;-40
2022/03/09 02:42:38;;;;;;;;;;;2.80;89.00;;;1.17;54.76;101834.44;2567594;30;137955;-40
2022/03/09 02:45:10;;;;;;;;;;;2.80;89.20;;;1.07;55.05;101825.44;2569006;30;138174;-40
2022/03/09 02:47:42;;;;;;;;;;;2.80;89.00;;;0.98;54.82;101830.56;2566943;30;137963;-40
2022/03/09 02:50:15;;;;;;;;;;;2.70;88.70;;;0.91;54.93;101831.16;2568018;30;137849;-40
2022/03/09 02:52:44;;;;;;;;;;;2.60;89.00;;;0.86;55.43;101836.94;2568509;30;137019;-39
2022/03/09 02:55:12;;;;;;;;;;;2.60;89.70;;;0.75;55.79;101823.50;2568791;30;138208;-40
2022/03/09 02:57:41;;;;;;;;;;;2.50;90.00;;;0.77;55.88;101834.97;2568215;30;137809;-40
2022/03/09 03:00:09;;;;;;;;;;;2.50;90.00;;;0.77;55.86;101830.47;2568265;30;139075;-40
2022/03/09 03:02:38;;;;;;;;;;;2.40;90.00;;;0.69;56.47;101822.19;2568744;30;137221;-40
2022/03/09 03:05:07;;;;;;;;;;;2.40;90.20;;;0.70;55.93;101827.41;2568085;30;138103;-40
2022/03/09 03:07:35;;;;;;;;;;;2.40;90.00;;;0.69;56.89;101817.63;2567894;30;136684;-40
2022/03/09 03:10:06;;;;;;;;;;;2.40;90.70;;;0.73;56.39;101817.38;2566126;30;138331;-40
2022/03/09 03:12:33;;;;;;;;;;;2.40;90.40;;;0.75;55.96;101815.44;2568271;30;139220;-40
2022/03/09 03:15:02;;;;;;;;;;;2.40;90.40;;;0.71;56.04;101817.53;2568161;30;137047;-40
2022/03/09 03:17:30;;;;;;;;;;;2.40;90.30;;;0.63;56.36;101822.66;2568299;30;137036;-40
2022/03/09 03:19:57;;;;;;;;;;;2.30;90.40;;;0.57;56.63;101818.63;2568812;30;138287;-40
2022/03/09 03:22:24;;;;;;;;;;;2.30;90.50;;;0.53;57.03;101819.81;2568613;30;137867;-41
2022/03/09 03:24:52;;;;;;;;;;;2.20;90.60;;;0.53;56.03;101818.00;2567662;30;139139;-40
2022/03/09 03:27:19;;;;;;;;;;;2.20;90.30;;;0.47;56.81;101812.28;2568508;30;137245;-40
2022/03/09 03:29:49;;;;;;;;;;;2.20;90.70;;;0.52;56.40;101808.25;2566878;30;139033;-40
2022/03/09 03:32:17;;;;;;;;;;;2.20;90.80;;;0.51;56.83;101811.03;2566946;30;136797;-40
2022/03/09 03:34:44;;;;;;;;;;;2.20;90.70;;;0.53;56.36;101811.78;2567523;30;138583;-40
2022/03/09 03:37:11;;;;;;;;;;;2.20;90.60;;;0.52;56.41;101807.38;2567371;30;137365;-40
2022/03/09 03:39:38;;;;;;;;;;;2.20;90.60;;;0.48;55.94;101809.47;2569215;30;137412;-40
2022/03/09 03:42:06;;;;;;;;;;;2.20;90.40;;;0.43;56.39;101809.00;2567896;30;136988;-40
2022/03/09 03:44:35;;;;;;;;;;;2.10;90.40;;;0.39;56.50;101811.06;2567895;30;138404;-40
2022/03/09 03:47:02;;;;;;;;;;;2.10;90.60;;;0.41;56.75;101803.72;2568290;30;137769;-40
2022/03/09 03:49:30;;;;;;;;;;;2.10;90.60;;;0.49;56.36;101799.56;2567152;30;138192;-40
2022/03/09 03:51:57;;;;;;;;;;;2.10;90.50;;;0.40;56.81;101802.03;2568425;30;137163;-40
2022/03/09 03:54:24;;;;;;;;;;;2.10;90.60;;;0.45;55.97;101806.16;2566847;30;139176;-40
2022/03/09 03:56:51;;;;;;;;;;;2.10;90.40;;;0.41;56.42;101803.72;2567993;30;136956;-40
2022/03/09 03:59:19;;;;;;;;;;;2.10;90.60;;;0.49;56.58;101802.25;2568262;30;138520;-40
2022/03/09 04:01:46;;;;;;;;;;;2.10;90.70;;;0.51;55.48;101801.16;2566313;30;137829;-40
2022/03/09 04:04:14;;;;;;;;;;;2.20;90.10;;;0.43;56.75;101803.63;2568913;30;138288;-40
2022/03/09 04:06:41;;;;;;;;;;;2.10;90.70;;;0.44;56.05;101797.28;2567635;30;138306;-40
2022/03/09 04:09:09;;;;;;;;;;;2.10;90.40;;;0.50;56.01;101798.59;2566673;30;136834;-40
2022/03/09 04:11:37;;;;;;;;;;;2.10;90.40;;;0.52;54.73;101797.50;2567077;30;137026;-40
2022/03/09 04:14:04;;;;;;;;;;;2.20;89.80;;;0.52;55.84;101804.69;2567989;30;138408;-40
2022/03/09 04:16:31;;;;;;;;;;;2.20;90.30;;;0.54;55.51;101797.41;2569419;30;137088;-40
2022/03/09 04:18:59;;;;;;;;;;;2.20;90.20;;;0.64;54.90;101793.00;2567890;30;138106;-40
2022/03/09 04:21:26;;;;;;;;;;;2.30;90.00;;;0.53;55.10;101791.16;2567457;30;137676;-40
2022/03/09 04:23:54;;;;;;;;;;;2.20;90.00;;;0.59;55.37;101805.06;2568465;30;138404;-40
2022/03/09 04:26:21;;;;;;;;;;;2.20;90.10;;;0.62;54.27;101818.25;2569428;30;137130;-40
2022/03/09 04:28:48;;;;;;;;;;;2.20;89.10;;;0.54;54.77;101813.50;2567220;30;137963;-40
2022/03/09 04:31:16;;;;;;;;;;;2.20;89.50;;;0.47;54.83;101809.59;2569139;30;137008;-40
2022/03/09 04:33:43;;;;;;;;;;;2.20;89.30;;;0.43;55.08;101812.50;2568556;30;138263;-40
2022/03/09 04:36:11;;;;;;;;;;;2.10;89.60;;;0.42;55.46;101807.28;2568480;30;137386;-40
2022/03/09 04:38:38;;;;;;;;;;;2.10;90.00;;;0.42;55.88;101800.06;2567956;30;139178;-40
2022/03/09 04:41:09;;;;;;;;;;;2.10;90.30;;;0.50;55.41;101799.47;2569061;30;137236;-40
2022/03/09 04:43:37;;;;;;;;;;;2.20;90.10;;;0.52;55.10;101799.31;2569222;30;139105;-41
2022/03/09 04:46:04;;;;;;;;;;;2.20;90.00;;;0.59;54.85;101802.38;2568812;30;137165;-40
2022/03/09 04:48:32;;;;;;;;;;;2.20;89.50;;;0.56;55.46;101803.50;2568333;30;138129;-40
2022/03/09 04:51:02;;;;;;;;;;;2.20;90.10;;;0.49;54.52;101807.63;2568680;30;137666;-40
2022/03/09 04:53:30;;;;;;;;;;;2.20;89.20;;;0.53;54.69;101817.16;2569095;30;138305;-40
2022/03/09 04:55:58;;;;;;;;;;;2.20;89.70;;;0.51;54.77;101811.91;2568709;30;137191;-40
2022/03/09 04:58:27;;;;;;;;;;;2.20;89.50;;;0.53;54.77;101814.47;2568116;30;137381;-40
2022/03/09 05:00:54;;;;;;;;;;;2.20;89.80;;;0.61;54.72;101812.03;2568824;30;137023;-40
2022/03/09 05:03:22;;;;;;;;;;;2.20;90.00;;;0.62;54.03;101816.44;2567977;30;138487;-40
2022/03/09 05:05:49;;;;;;;;;;;2.20;89.00;;;0.45;55.06;101814.22;2567740;30;137706;-40
2022/03/09 05:08:17;;;;;;;;;;;2.20;89.70;;;0.60;54.73;101813.00;2568166;30;139100;-40
2022/03/09 05:10:44;;;;;;;;;;;2.20;89.50;;;0.54;54.72;101818.88;2568427;30;137192;-40
2022/03/09 05:13:11;;;;;;;;;;;2.20;89.80;;;0.52;54.52;101816.31;2567631;30;138301;-40
2022/03/09 05:15:39;;;;;;;;;;;2.20;89.60;;;0.43;55.10;101819.72;2569120;30;137050;-40
2022/03/09 05:18:06;;;;;;;;;;;2.10;89.80;;;0.32;55.52;101817.03;2568207;30;137778;-40
2022/03/09 05:20:34;;;;;;;;;;;2.00;90.10;;;0.28;55.74;101821.78;2567268;30;137203;-40
2022/03/09 05:23:01;;;;;;;;;;;2.00;90.20;;;0.31;55.47;101826.94;2569320;30;139142;-40
2022/03/09 05:25:29;;;;;;;;;;;2.00;90.20;;;0.32;55.62;101817.03;2568143;30;136709;-40
2022/03/09 05:27:58;;;;;;;;;;;2.00;90.10;;;0.41;56.03;101816.31;2568080;30;137424;-40
2022/03/09 05:30:26;;;;;;;;;;;2.10;90.60;;;0.31;55.60;101821.56;2568730;30;138038;-40
2022/03/09 05:32:53;;;;;;;;;;;2.00;90.20;;;0.29;55.48;101828.88;2568212;30;138379;-40
2022/03/09 05:35:21;;;;;;;;;;;2.00;90.20;;;0.29;55.95;101820.81;2568719;30;138237;-39
2022/03/09 05:37:48;;;;;;;;;;;2.00;90.40;;;0.33;55.36;101822.28;2567853;30;139096;-40
2022/03/09 05:40:16;;;;;;;;;;;2.00;90.20;;;0.27;55.80;101828.13;2567969;30;137030;-40
2022/03/09 05:42:43;;;;;;;;;;;2.00;90.30;;;0.31;56.14;101831.44;2567784;30;137583;-40
2022/03/09 05:45:15;;;;;;;;;;;2.00;90.60;;;0.32;56.09;101830.44;2567211;30;137904;-40
2022/03/09 05:47:47;;;;;;;;;;;2.00;90.50;;;0.35;55.03;101832.88;2569582;30;137423;-40
2022/03/09 05:50:15;;;;;;;;;;;2.00;90.10;;;0.38;55.28;101833.50;2568781;30;137950;-40
2022/03/09 05:52:44;;;;;;;;;;;2.00;90.20;;;0.36;55.74;101838.16;2567936;30;138190;-40
2022/03/09 05:55:11;;;;;;;;;;;2.00;90.30;;;0.34;56.40;101845.47;2570307;30;137259;-40
2022/03/09 05:57:38;;;;;;;;;;;2.00;90.70;;;0.36;55.84;101837.28;2567921;30;138367;-40
2022/03/09 06:00:07;;;;;;;;;;;2.00;90.60;;;0.34;55.32;101837.41;2567503;30;137855;-40
2022/03/09 06:02:37;;;;;;;;;;;2.00;90.30;;;0.34;56.08;101837.41;2568992;30;136739;-40
2022/03/09 06:05:05;;;;;;;;;;;2.00;90.70;;;0.36;56.36;101827.41;2568421;30;136623;-40
2022/03/09 06:07:33;;;;;;;;;;;2.00;90.90;;;0.36;55.64;101832.78;2568892;30;137159;-40
2022/03/09 06:10:01;;;;;;;;;;;2.00;90.40;;;0.35;55.91;101840.94;2568964;30;137925;-40
2022/03/09 06:12:28;;;;;;;;;;;2.00;90.50;;;0.33;55.90;101838.41;2568139;30;138610;-40
2022/03/09 06:14:55;;;;;;;;;;;2.00;90.50;;;0.27;56.07;101833.50;2568137;30;136779;-40
2022/03/09 06:17:23;;;;;;;;;;;2.00;90.60;;;0.25;57.10;101846.16;2568603;30;138012;-40
2022/03/09 06:19:51;;;;;;;;;;;1.90;91.00;;;0.30;55.55;101838.63;2568745;30;137087;-40
2022/03/09 06:22:18;;;;;;;;;;;2.00;90.40;;;0.43;55.49;101850.09;2567619;30;138517;-40
2022/03/09 06:24:46;;;;;;;;;;;2.00;90.50;;;0.45;56.30;101852.69;2567657;30;137149;-40
2022/03/09 06:27:14;;;;;;;;;;;2.00;90.80;;;0.46;56.48;101853.53;2568859;30;138462;-40
2022/03/09 06:29:42;;;;;;;;;;;2.10;90.90;;;0.56;55.72;101859.91;2567583;30;136788;-40
2022/03/09 06:32:09;;;;;;;;;;;2.10;90.70;;;0.68;56.06;101853.53;2569024;30;138382;-40
2022/03/09 06:34:36;;;;;;;;;;;2.20;90.80;;;0.74;55.67;101856.72;2567636;30;137143;-40
2022/03/09 06:37:04;;;;;;;;;;;2.30;90.50;;;0.76;55.15;101857.44;2568362;30;138942;-40
2022/03/09 06:39:31;;;;;;;;;;;2.30;90.40;;;0.83;55.81;101861.38;2567266;30;137342;-40
2022/03/09 06:41:59;;;;;;;;;;;2.40;90.70;;;0.88;55.40;101856.47;2566845;30;137600;-40
2022/03/09 06:44:26;;;;;;;;;;;2.40;90.50;;;0.98;56.08;101857.44;2568905;30;137034;-40
2022/03/09 06:46:53;;;;;;;;;;;2.50;90.80;;;1.23;53.88;101860.81;2569306;30;138321;-40
2022/03/09 06:49:21;;;;;;;;;;;2.70;89.80;;;1.20;54.09;101862.91;2568032;30;137066;-40
2022/03/09 06:51:48;;;;;;;;;;;2.80;89.70;;;1.23;53.46;101863.50;2567192;30;138884;-40
2022/03/09 06:54:17;;;;;;;;;;;2.80;89.20;;;1.32;53.79;101866.41;2568265;30;137461;-40
2022/03/09 06:56:47;;;;;;;;;;;2.80;89.30;;;1.38;53.10;101871.31;2566251;30;138163;-40
2022/03/09 06:59:16;;;;;;;;;;;2.90;89.40;;;1.41;53.38;101879.97;2568944;30;137270;-40
2022/03/09 07:01:43;;;;;;;;;;;2.90;89.20;;;1.57;53.28;101874.16;2568672;30;139372;-40
2022/03/09 07:04:11;;;;;;;;;;;3.00;88.70;;;1.62;53.38;101876.47;2567931;30;136778;-40
2022/03/09 07:06:39;;;;;;;;;;;3.10;89.00;;;1.72;52.83;101874.75;2567595;30;138153;-40
2022/03/09 07:16:11;;;;;;;;;;;3.20;88.60;;;2.07;51.25;101869.19;2570594;30;138016;-39
2022/03/09 07:18:38;;;;;;;;;;;3.60;86.70;;;2.29;51.27;101877.16;2569180;30;137634;-41
2022/03/09 07:21:05;;;;;;;;;;;3.70;86.60;;;2.34;50.54;101878.59;2569618;30;137031;-41
2022/03/09 07:23:33;;;;;;;;;;;3.80;86.60;;;2.49;49.91;101881.78;2565848;30;138969;-41
2022/03/09 07:26:00;;;;;;;;;;;3.90;85.50;;;2.67;49.75;101871.25;2568980;30;137166;-44
2022/03/09 07:28:28;;;;;;;;;;;4.00;85.50;;;2.67;50.07;101863.16;2568871;30;137683;-41
2022/03/09 07:30:57;;;;;;;;;;;4.10;85.70;;;2.71;49.76;101862.75;2568909;30;136698;-41
2022/03/09 07:33:24;;;;;;;;;;;4.20;85.00;;;2.95;50.10;101885.84;2568107;30;138921;-41
2022/03/09 07:35:52;;;;;;;;;;;4.30;85.60;;;3.03;49.57;101882.44;2569659;30;137307;-41
2022/03/09 07:38:20;;;;;;;;;;;4.40;85.20;;;3.11;48.91;101896.13;2567092;30;139468;-41
2022/03/09 07:40:47;;;;;;;;;;;4.50;83.90;;;3.21;48.08;101896.16;2569477;30;136988;-41
2022/03/09 07:43:15;;;;;;;;;;;4.60;83.60;;;3.33;49.30;101898.72;2568698;30;138365;-41
2022/03/09 07:45:45;;;;;;;;;;;4.70;84.80;;;3.45;48.35;101897.63;2570410;30;137883;-41
2022/03/09 07:48:13;;;;;;;;;;;4.80;83.60;;;3.52;48.35;101908.69;2569707;30;139030;-41
2022/03/09 07:50:40;;;;;;;;;;;4.90;83.70;;;3.66;47.89;101904.75;2568286;30;137365;-41
2022/03/09 07:53:08;;;;;;;;;;;5.00;82.60;;;3.79;46.71;101913.44;2570416;30;138347;-41
2022/03/09 07:55:36;;;;;;;;;;;5.10;82.10;;;3.92;46.44;101912.28;2569934;30;136880;-40
2022/03/09 07:58:03;;;;;;;;;;;5.30;81.60;;;4.02;46.49;101907.75;2570535;30;137008;-40
2022/03/09 08:00:30;;;;;;;;;;;5.40;81.50;;;4.10;46.27;101920.53;2571348;30;137734;-40
2022/03/09 08:02:58;;;;;;;;;;;5.40;81.40;;;4.18;46.64;101918.81;2571310;30;137641;-41
2022/03/09 08:05:45;;;;;;;;;;;5.50;81.90;;;4.32;46.25;101920.22;2570978;30;137017;-41
2022/03/09 08:08:13;;;;;;;;;;;5.70;81.20;;;4.41;46.49;101921.22;2570599;30;139095;-41
2022/03/09 08:10:40;;;;;;;;;;;5.80;81.50;;;4.51;45.52;101925.75;2568766;30;137911;-41
2022/03/09 08:13:07;;;;;;;;;;;5.80;80.20;;;4.61;46.24;101926.59;2570518;30;138288;-41
2022/03/09 08:15:37;;;;;;;;;;;5.90;81.40;;;4.71;44.86;101922.00;2571841;30;137073;-41
2022/03/09 08:18:04;;;;;;;;;;;6.00;79.60;;;4.75;45.24;101920.69;2570385;30;138293;-41
2022/03/09 08:20:32;;;;;;;;;;;6.10;80.00;;;4.90;45.22;101926.47;2568911;30;138774;-41
2022/03/09 08:22:59;;;;;;;;;;;6.20;80.00;;;4.98;45.16;101925.75;2568013;30;138971;-41
2022/03/09 08:25:27;;;;;;;;;;;6.30;79.70;;;5.10;44.86;101933.69;2569629;30;137834;-41
2022/03/09 08:27:54;;;;;;;;;;;6.40;79.50;;;5.20;44.04;101936.34;2571085;30;138899;-41
2022/03/09 08:30:23;;;;;;;;;;;6.50;78.50;;;5.26;43.95;101930.34;2568962;30;138008;-40
2022/03/09 08:32:50;;;;;;;;;;;6.60;78.20;;;5.36;44.24;101933.84;2567982;30;137288;-41
2022/03/09 08:35:17;;;;;;;;;;;6.70;79.40;;;5.48;43.63;101942.59;2567973;30;136910;-41
2022/03/09 08:37:45;;;;;;;;;;;6.80;78.30;;;5.57;43.89;101947.13;2570086;30;139104;-41
2022/03/09 08:40:15;;;;;;;;;;;6.80;78.20;;;5.63;44.06;101942.09;2570702;30;137170;-41
2022/03/09 08:42:42;;;;;;;;;;;7.00;78.80;;;5.71;44.49;101943.06;2568557;30;139315;-41
2022/03/09 08:45:10;;;;;;;;;;;7.00;79.10;;;5.84;43.93;101948.09;2570504;30;137089;-41
2022/03/09 08:47:39;;;;;;;;;;;7.10;78.80;;;5.96;44.14;101940.56;2570581;30;138997;-41
2022/03/09 08:50:07;;;;;;;;;;;7.20;78.70;;;6.02;43.02;101945.41;2569871;30;136825;-40
2022/03/09 08:52:56;;;;;;;;;;;7.30;77.20;;;6.10;43.41;101936.53;2569703;30;138565;-41
2022/03/09 08:55:24;;;;;;;;;;;7.40;78.10;;;6.11;42.69;101932.81;2569675;30;138091;-41
2022/03/09 08:57:52;;;;;;;;;;;7.40;76.70;;;6.26;42.90;101945.78;2568942;30;137379;-41
2022/03/09 09:00:36;;;;;;;;;;;7.50;77.10;;;6.32;42.29;101937.00;2569687;30;137226;-40
2022/03/09 09:03:04;;;;;;;;;;;7.60;76.00;;;6.42;42.46;101940.50;2568480;30;138237;-42
2022/03/09 09:05:31;;;;;;;;;;;7.70;76.40;;;6.45;42.00;101942.03;2570235;30;137311;-41
2022/03/09 09:07:59;;;;;;;;;;;7.70;76.10;;;6.55;42.09;101942.81;2570919;30;137075;-41
2022/03/09 09:10:33;;;;;;;;;;;7.80;76.40;;;6.61;41.96;101947.59;2569629;30;137048;-41
2022/03/09 09:13:00;;;;;;;;;;;7.90;75.70;;;6.69;41.70;101940.50;2570235;30;137872;-41
2022/03/09 09:15:29;;;;;;;;;;;8.00;75.50;;;6.84;41.67;101947.06;2568117;30;137141;-41
2022/03/09 09:18:01;;;;;;;;;;;8.00;75.60;;;6.96;41.52;101942.22;2569523;30;138985;-41
2022/03/09 09:20:48;;;;;;;;;;;8.20;75.50;;;7.09;42.09;101951.75;2568638;30;138058;-40
2022/03/09 09:23:16;;;;;;;;;;;8.30;76.20;;;7.10;40.80;101942.59;2571892;30;138203;-41
2022/03/09 09:25:45;;;;;;;;;;;8.30;74.80;;;7.17;39.70;101946.41;2568827;30;137808;-41
2022/03/09 09:28:13;;;;;;;;;;;8.40;73.00;;;7.18;40.61;101938.06;2570168;30;139257;-41
2022/03/09 09:30:41;;;;;;;;;;;8.50;74.40;;;7.24;41.24;101939.28;2570289;30;137124;-41
2022/03/09 09:33:08;;;;;;;;;;;8.50;74.80;;;7.32;40.43;101936.59;2569141;30;138465;-41
2022/03/09 09:35:36;;;;;;;;;;;8.60;74.10;;;7.37;40.15;101936.13;2570206;30;136952;-41
2022/03/09 09:38:08;;;;;;;;;;;8.60;73.60;;;7.41;40.54;101944.78;2571251;30;137087;-41
2022/03/09 09:40:45;;;;;;;;;;;8.70;73.80;;;7.42;39.98;101946.47;2570515;30;137252;-41
2022/03/09 09:43:15;;;;;;;;;;;8.70;72.90;;;7.51;41.29;101940.06;2570523;30;138476;-41
2022/03/09 09:45:43;;;;;;;;;;;8.70;74.40;;;7.52;39.92;101936.34;2570245;30;136806;-41
2022/03/09 09:48:12;;;;;;;;;;;8.80;72.70;;;7.58;39.66;101940.28;2569752;30;139005;-41
2022/03/09 09:50:41;;;;;;;;;;;8.80;72.60;;;7.69;39.92;101941.78;2570089;30;137836;-41
2022/03/09 09:53:11;;;;;;;;;;;8.90;73.40;;;7.84;39.70;101939.31;2570223;30;138107;-41
2022/03/09 09:55:40;;;;;;;;;;;9.00;72.90;;;7.96;40.83;101927.09;2569235;30;136993;-41
2022/03/09 09:58:08;;;;;;;;;;;9.10;74.20;;;8.03;39.59;101930.81;2569710;30;138529;-41
2022/03/09 10:00:36;;;;;;;;;;;9.20;73.00;;;8.11;39.50;101929.16;2570015;30;137265;-41
2022/03/09 10:03:04;;;;;;;;;;;9.30;72.70;;;8.21;40.08;101919.78;2569417;30;138037;-41
2022/03/09 10:05:32;;;;;;;;;;;9.40;73.70;;;8.31;39.28;101930.50;2569513;30;136729;-41
2022/03/09 10:08:05;;;;;;;;;;;9.50;72.30;;;8.43;39.11;101928.28;2569156;30;138506;-41
2022/03/09 10:10:38;;;;;;;;;;;9.60;72.40;;;8.49;38.42;101924.03;2566767;30;137423;-41
2022/03/09 10:13:20;;;;;;;;;;;9.70;71.60;;;8.64;37.72;101921.50;2568453;30;137835;-41
2022/03/09 10:16:06;;;;;;;;;;;9.70;71.50;;;8.70;38.03;101919.97;2570415;30;137927;-41
2022/03/09 10:18:34;;;;;;;;;;;9.90;71.20;;;8.81;37.50;101926.91;2570102;30;137331;-41
2022/03/09 10:21:23;;;;;;;;;;;9.90;70.20;;;8.83;37.49;101928.41;2568945;30;137141;-41
2022/03/09 10:24:01;;;;;;;;;;;10.00;70.00;;;8.95;38.26;101928.06;2569740;30;138853;-41
2022/03/09 10:26:45;;;;;;;;;;;10.00;71.10;;;9.02;38.68;101929.91;2570131;30;136854;-41
2022/03/09 10:29:18;;;;;;;;;;;10.10;70.00;;;9.08;38.49;101931.06;2569723;30;137297;-41
2022/03/09 10:31:48;;;;;;;;;;;10.20;71.40;;;9.07;37.71;101924.78;2568107;30;136878;-41
2022/03/09 10:34:25;;;;;;;;;;;10.30;70.10;;;9.19;37.91;101921.66;2569480;30;137063;-41
2022/03/09 10:36:56;;;;;;;;;;;10.40;70.00;;;9.27;37.83;101927.06;2570071;30;137153;-42
2022/03/09 10:39:37;;;;;;;;;;;10.40;70.30;;;9.35;37.46;101927.06;2569953;30;137233;-41
2022/03/09 10:42:25;;;;;;;;;;;10.50;69.70;;;9.48;38.24;101915.59;2565985;30;137276;-41
2022/03/09 10:44:54;;;;;;;;;;;10.60;70.70;;;9.59;36.11;101911.63;2569621;30;138304;-41
2022/03/09 10:47:29;;;;;;;;;;;10.70;67.90;;;9.69;37.88;101914.13;2568902;30;136898;-41
2022/03/09 10:50:30;;;;;;;;;;;10.80;69.80;;;9.91;37.32;101915.16;2570167;30;137267;-41
2022/03/09 10:53:00;;;;;;;;;;;10.90;70.50;;;9.96;37.41;101911.88;2568632;30;137867;-40
2022/03/09 10:55:34;;;;;;;;;;;11.00;69.50;;;10.01;37.08;101911.31;2570162;30;139092;-42
2022/03/09 10:58:36;;;;;;;;;;;11.20;69.60;;;10.05;35.67;101912.66;2569030;30;137167;-41
2022/03/09 11:01:04;;;;;;;;;;;11.20;67.70;;;10.10;36.37;101906.66;2569473;30;137255;-41
2022/03/09 11:03:34;;;;;;;;;;;11.20;68.00;;;10.24;36.50;101902.28;2567468;30;138333;-40
2022/03/09 11:06:03;;;;;;;;;;;11.30;68.60;;;10.32;35.72;101905.78;2568310;30;138472;-40
2022/03/09 11:08:34;;;;;;;;;;;11.40;66.90;;;10.39;35.31;101911.34;2569844;30;136973;-41
2022/03/09 11:11:03;;;;;;;;;;;11.50;67.10;;;10.39;34.73;101905.91;2569476;30;138295;-40
2022/03/09 11:13:34;;;;;;;;;;;11.50;65.70;;;10.41;33.23;101909.31;2568811;30;137199;-42
2022/03/09 11:16:02;;;;;;;;;;;11.60;63.80;;;10.56;35.36;101903.03;2567792;30;138537;-40
2022/03/09 11:18:32;;;;;;;;;;;11.70;66.80;;;10.64;34.87;101895.59;2566480;30;137072;-41
2022/03/09 11:21:08;;;;;;;;;;;11.70;65.90;;;10.73;34.54;101901.84;2569051;30;138447;-41
2022/03/09 11:23:41;;;;;;;;;;;11.80;65.70;;;10.78;34.84;101893.94;2569881;30;137800;-40
2022/03/09 11:26:16;;;;;;;;;;;11.90;65.70;;;10.89;35.03;101892.59;2568109;30;138210;-40
2022/03/09 11:28:45;;;;;;;;;;;12.00;65.80;;;10.87;35.19;101891.94;2569217;30;136972;-40
2022/03/09 11:31:15;;;;;;;;;;;12.00;65.90;;;10.90;34.54;101888.00;2568864;30;137422;-41
2022/03/09 11:33:49;;;;;;;;;;;12.10;65.00;;;10.90;36.16;101890.75;2566683;30;137995;-40
2022/03/09 11:36:27;;;;;;;;;;;12.10;66.90;;;11.10;36.13;101884.69;2568969;30;137408;-41